createdAt,value
2022-10-07T00:01:30.438Z,8.40
2022-10-07T00:03:58.710Z,7.70
2022-10-07T00:06:27.163Z,12.43
2022-10-07T00:08:55.892Z,10.20
2022-10-07T00:11:27.503Z,7.75
2022-10-07T00:13:59.215Z,5.53
2022-10-07T00:16:30.254Z,9.25
2022-10-07T00:19:01.527Z,5.05
2022-10-07T00:21:31.892Z,8.30
2022-10-07T00:24:00.772Z,11.40
2022-10-07T00:26:31.218Z,6.38
2022-10-07T00:29:01.168Z,6.78
2022-10-07T00:31:31.533Z,4.93
2022-10-07T00:34:00.492Z,11.60
2022-10-07T00:36:32.090Z,5.70
2022-10-07T00:39:01.620Z,6.00
2022-10-07T00:41:32.862Z,7.78
2022-10-07T00:44:40.144Z,7.43
2022-10-07T00:47:20.058Z,6.68
2022-10-07T00:49:52.345Z,7.47
2022-10-07T00:52:23.460Z,6.00
2022-10-07T00:54:54.420Z,6.80
2022-10-07T00:57:24.984Z,3.65
2022-10-07T01:00:01.552Z,6.53
2022-10-07T01:02:31.742Z,4.03
2022-10-07T01:05:02.720Z,6.07
2022-10-07T01:07:31.180Z,11.48
2022-10-07T01:10:01.065Z,4.78
2022-10-07T01:12:38.726Z,8.35
2022-10-07T01:15:19.517Z,6.78
2022-10-07T01:17:54.886Z,6.88
2022-10-07T01:20:32.540Z,6.65
2022-10-07T01:23:26.342Z,7.68
2022-10-07T01:26:23.080Z,4.88
2022-10-07T01:28:55.168Z,4.10
2022-10-07T01:31:29.129Z,4.85
2022-10-07T01:33:57.699Z,6.38
2022-10-07T01:36:27.513Z,5.28
2022-10-07T01:41:34.011Z,9.90
2022-10-07T01:44:03.054Z,7.68
2022-10-07T01:46:33.363Z,5.97
2022-10-07T01:49:01.656Z,9.57
2022-10-07T01:51:34.736Z,12.00
2022-10-07T01:54:10.029Z,7.53
2022-10-07T01:56:54.270Z,8.13
2022-10-07T02:00:06.947Z,6.38
2022-10-07T02:02:55.092Z,12.52
2022-10-07T02:05:33.924Z,5.60
2022-10-07T02:08:17.713Z,7.03
2022-10-07T02:10:59.217Z,6.60
2022-10-07T02:13:36.212Z,9.45
2022-10-07T02:16:14.014Z,4.78
2022-10-07T02:18:44.513Z,9.15
2022-10-07T02:21:13.305Z,7.35
2022-10-07T02:23:44.395Z,7.93
2022-10-07T02:26:15.844Z,8.35
2022-10-07T02:28:47.895Z,10.93
2022-10-07T02:31:34.387Z,4.05
2022-10-07T02:34:05.969Z,6.53
2022-10-07T02:36:39.217Z,10.15
2022-10-07T02:39:08.443Z,6.53
2022-10-07T02:41:43.516Z,5.55
2022-10-07T02:44:26.164Z,10.45
2022-10-07T02:47:00.242Z,7.07
2022-10-07T02:49:31.507Z,10.55
2022-10-07T02:52:05.432Z,7.03
2022-10-07T02:54:38.521Z,7.75
2022-10-07T02:57:07.811Z,11.82
2022-10-07T03:02:11.396Z,6.88
2022-10-07T03:04:40.167Z,6.68
2022-10-07T03:07:08.445Z,7.73
2022-10-07T03:09:36.730Z,8.48
2022-10-07T03:12:05.677Z,13.30
2022-10-07T03:14:35.862Z,8.38
2022-10-07T03:17:05.469Z,9.07
2022-10-07T03:19:33.847Z,9.18
2022-10-07T03:22:02.467Z,7.40
2022-10-07T03:24:31.216Z,12.73
2022-10-07T03:26:59.582Z,9.45
2022-10-07T03:29:27.769Z,12.73
2022-10-07T03:31:55.952Z,9.15
2022-10-07T03:34:27.377Z,8.45
2022-10-07T03:36:56.168Z,11.57
2022-10-07T03:39:24.806Z,8.20
2022-10-07T03:41:52.965Z,4.88
2022-10-07T03:44:22.546Z,8.10
2022-10-07T03:46:51.359Z,9.07
2022-10-07T03:49:20.551Z,9.27
2022-10-07T03:51:50.068Z,9.43
2022-10-07T03:54:18.862Z,11.02
2022-10-07T03:56:47.119Z,8.05
2022-10-07T03:59:15.220Z,11.95
2022-10-07T04:01:43.620Z,9.20
2022-10-07T04:04:12.043Z,8.75
2022-10-07T04:06:40.252Z,13.33
2022-10-07T04:09:10.075Z,5.15
2022-10-07T04:11:40.735Z,6.43
2022-10-07T04:14:08.996Z,10.07
2022-10-07T04:16:38.697Z,5.50
2022-10-07T04:19:07.308Z,8.50
2022-10-07T04:21:35.470Z,9.93
2022-10-07T04:24:04.126Z,7.43
2022-10-07T04:26:33.741Z,8.27
2022-10-07T04:29:01.999Z,8.82
2022-10-07T04:31:30.529Z,5.65
2022-10-07T04:33:59.117Z,9.23
2022-10-07T04:36:27.379Z,7.63
2022-10-07T04:38:55.920Z,7.88
2022-10-07T04:41:24.156Z,5.13
2022-10-07T04:43:57.582Z,6.20
2022-10-07T04:46:28.566Z,7.38
2022-10-07T04:48:57.454Z,5.80
2022-10-07T04:51:28.094Z,8.70
2022-10-07T04:53:57.228Z,6.78
2022-10-07T04:58:56.167Z,8.00
2022-10-07T05:01:24.871Z,8.77
2022-10-07T05:03:53.070Z,10.47
2022-10-07T05:06:21.525Z,8.63
2022-10-07T05:08:50.000Z,10.25
2022-10-07T05:11:18.470Z,8.75
2022-10-07T05:13:46.890Z,7.50
2022-10-07T05:16:16.909Z,7.30
2022-10-07T05:18:45.324Z,7.10
2022-10-07T05:21:13.450Z,7.78
2022-10-07T05:23:41.833Z,5.70
2022-10-07T05:26:13.910Z,7.75
2022-10-07T05:28:44.215Z,10.55
2022-10-07T05:31:14.290Z,8.45
2022-10-07T05:33:44.455Z,7.40
2022-10-07T05:36:13.091Z,7.78
2022-10-07T05:38:41.800Z,8.80
2022-10-07T05:41:12.572Z,8.10
2022-10-07T05:43:43.329Z,7.53
2022-10-07T05:46:13.682Z,13.32
2022-10-07T05:48:43.243Z,10.23
2022-10-07T05:51:14.216Z,11.30
2022-10-07T05:53:43.208Z,10.38
2022-10-07T05:56:13.367Z,6.43
2022-10-07T05:58:41.930Z,11.45
2022-10-07T06:01:15.807Z,14.73
2022-10-07T06:03:44.798Z,8.60
2022-10-07T06:06:15.261Z,6.57
2022-10-07T06:08:43.909Z,4.95
2022-10-07T06:11:31.324Z,5.50
2022-10-07T06:13:59.806Z,8.70
2022-10-07T06:16:28.774Z,8.02
2022-10-07T06:18:57.834Z,8.18
2022-10-07T06:21:28.832Z,12.02
2022-10-07T06:23:59.073Z,8.65
2022-10-07T06:26:27.276Z,8.98
2022-10-07T06:28:55.755Z,8.90
2022-10-07T06:31:25.778Z,7.60
2022-10-07T06:33:55.633Z,8.35
2022-10-07T06:36:24.026Z,7.97
2022-10-07T06:38:55.619Z,12.30
2022-10-07T06:41:24.758Z,7.25
2022-10-07T06:43:57.637Z,15.10
2022-10-07T06:46:25.902Z,5.10
2022-10-07T06:48:54.459Z,5.70
2022-10-07T06:51:25.383Z,12.20
2022-10-07T06:53:57.645Z,7.60
2022-10-07T06:56:26.296Z,7.82
2022-10-07T06:58:54.931Z,7.60
2022-10-07T07:01:23.178Z,10.07
2022-10-07T07:03:51.697Z,5.43
2022-10-07T07:06:19.915Z,9.52
2022-10-07T07:08:50.422Z,9.20
2022-10-07T07:11:40.878Z,7.35
2022-10-07T07:14:11.598Z,9.68
2022-10-07T07:16:40.108Z,8.32
2022-10-07T07:19:10.276Z,8.20
2022-10-07T07:21:41.048Z,9.02
2022-10-07T07:24:09.892Z,7.25
2022-10-07T07:26:40.536Z,3.73
2022-10-07T07:29:09.792Z,5.65
2022-10-07T07:31:38.505Z,9.80
2022-10-07T07:34:11.894Z,6.50
2022-10-07T07:36:43.797Z,5.18
2022-10-07T07:39:14.969Z,8.82
2022-10-07T07:41:47.881Z,9.25
2022-10-07T07:44:19.409Z,4.35
2022-10-07T07:46:51.235Z,7.28
2022-10-07T07:49:21.112Z,7.88
2022-10-07T07:51:49.370Z,7.95
2022-10-07T07:54:19.034Z,11.68
2022-10-07T07:59:18.167Z,11.32
2022-10-07T08:01:46.591Z,5.78
2022-10-07T08:04:21.632Z,5.82
2022-10-07T08:06:49.911Z,6.68
2022-10-07T08:09:18.429Z,13.37
2022-10-07T08:11:46.697Z,10.60
2022-10-07T08:14:18.502Z,9.18
2022-10-07T08:16:47.485Z,6.03
2022-10-07T08:19:16.083Z,5.53
2022-10-07T08:21:44.343Z,9.20
2022-10-07T08:24:14.577Z,4.80
2022-10-07T08:26:47.506Z,5.03
2022-10-07T08:29:18.270Z,10.90
2022-10-07T08:31:46.735Z,6.05
2022-10-07T08:34:15.642Z,6.88
2022-10-07T08:36:47.617Z,4.63
2022-10-07T08:39:17.094Z,14.07
2022-10-07T08:41:59.210Z,6.07
2022-10-07T08:44:36.118Z,3.28
2022-10-07T08:47:12.495Z,8.20
2022-10-07T08:49:53.980Z,6.25
2022-10-07T08:52:45.532Z,4.65
2022-10-07T08:55:20.825Z,6.80
2022-10-07T08:58:04.550Z,4.78
2022-10-07T09:00:43.674Z,7.78
2022-10-07T09:03:25.902Z,8.82
2022-10-07T09:05:58.901Z,5.32
2022-10-07T09:08:33.055Z,6.60
2022-10-07T09:11:15.922Z,4.90
2022-10-07T09:13:49.236Z,5.05
2022-10-07T09:16:22.857Z,8.55
2022-10-07T09:18:54.406Z,8.43
2022-10-07T09:21:25.917Z,7.90
2022-10-07T09:23:58.252Z,7.03
2022-10-07T09:26:28.191Z,10.98
2022-10-07T09:28:56.875Z,9.68
2022-10-07T09:31:32.705Z,6.78
2022-10-07T09:34:15.842Z,4.22
2022-10-07T09:37:19.214Z,4.25
2022-10-07T09:39:50.668Z,4.20
2022-10-07T09:42:32.868Z,3.25
2022-10-07T09:45:06.004Z,10.75
2022-10-07T09:47:40.508Z,7.00
2022-10-07T09:50:32.329Z,3.83
2022-10-07T09:53:03.292Z,4.05
2022-10-07T09:55:37.842Z,8.80
2022-10-07T09:58:08.253Z,5.88
2022-10-07T10:00:44.644Z,8.98
2022-10-07T10:03:14.980Z,7.20
2022-10-07T10:05:55.374Z,6.30
2022-10-07T10:08:28.022Z,8.18
2022-10-07T10:10:58.272Z,5.80
2022-10-07T10:13:30.714Z,6.53
2022-10-07T10:16:00.294Z,6.93
2022-10-07T10:21:20.948Z,7.95
2022-10-07T10:23:52.663Z,4.55
2022-10-07T10:26:47.990Z,5.45
2022-10-07T10:29:47.592Z,7.55
2022-10-07T10:32:39.965Z,5.32
2022-10-07T10:35:16.048Z,4.00
2022-10-07T10:38:17.509Z,6.28
2022-10-07T10:40:55.290Z,6.78
2022-10-07T10:43:32.688Z,6.18
2022-10-07T10:46:25.006Z,9.32
2022-10-07T10:49:02.674Z,3.30
2022-10-07T10:51:50.346Z,3.88
2022-10-07T10:54:28.961Z,7.60
2022-10-07T10:57:05.577Z,8.25
2022-10-07T10:59:49.393Z,5.00
2022-10-07T11:02:31.998Z,3.85
2022-10-07T11:05:06.399Z,5.95
2022-10-07T11:07:42.755Z,3.92
2022-10-07T11:10:23.432Z,6.38
2022-10-07T11:12:56.669Z,5.57
2022-10-07T11:15:29.115Z,6.13
2022-10-07T11:18:02.661Z,6.03
2022-10-07T11:20:34.865Z,5.18
2022-10-07T11:23:14.408Z,3.83
2022-10-07T11:25:48.524Z,6.75
2022-10-07T11:28:22.647Z,8.43
2022-10-07T11:30:57.277Z,7.45
2022-10-07T11:33:32.258Z,4.18
2022-10-07T11:36:09.213Z,3.85
2022-10-07T11:38:40.608Z,6.38
2022-10-07T11:41:15.529Z,4.85
2022-10-07T11:43:46.869Z,8.60
2022-10-07T11:46:20.496Z,5.03
2022-10-07T11:48:52.125Z,1.80
2022-10-07T11:51:25.608Z,6.75
2022-10-07T11:54:01.203Z,4.50
2022-10-07T11:56:34.672Z,5.60
2022-10-07T11:59:05.511Z,6.63
2022-10-07T12:01:55.422Z,6.35
2022-10-07T12:04:49.479Z,7.05
2022-10-07T12:08:00.670Z,6.00
2022-10-07T12:10:35.356Z,5.28
2022-10-07T12:13:42.207Z,3.17
2022-10-07T12:16:44.944Z,6.55
2022-10-07T12:19:17.948Z,5.13
2022-10-07T12:22:18.770Z,5.53
2022-10-07T12:25:11.360Z,5.38
2022-10-07T12:27:47.888Z,10.10
2022-10-07T12:30:42.394Z,4.60
2022-10-07T12:33:17.765Z,9.30
2022-10-07T12:35:54.552Z,5.22
2022-10-07T12:38:25.787Z,6.22
2022-10-07T12:41:25.073Z,7.32
2022-10-07T12:44:04.607Z,8.93
2022-10-07T12:46:40.281Z,5.90
2022-10-07T12:49:15.741Z,4.32
2022-10-07T12:51:45.792Z,4.07
2022-10-07T12:54:21.149Z,3.40
2022-10-07T12:56:49.775Z,6.70
2022-10-07T12:59:50.274Z,4.83
2022-10-07T13:02:48.486Z,5.30
2022-10-07T13:05:52.015Z,6.50
2022-10-07T13:09:11.136Z,4.40
2022-10-07T13:12:30.946Z,5.43
2022-10-07T13:15:17.911Z,4.32
2022-10-07T13:17:51.752Z,3.95
2022-10-07T13:20:38.904Z,5.90
2022-10-07T13:23:15.327Z,5.40
2022-10-07T13:25:52.466Z,2.38
2022-10-07T13:28:24.287Z,6.00
2022-10-07T13:31:12.967Z,8.85
2022-10-07T13:33:43.297Z,5.30
2022-10-07T13:36:17.907Z,6.63
2022-10-07T13:38:47.887Z,2.35
2022-10-07T13:41:24.020Z,5.32
2022-10-07T13:43:57.891Z,6.07
2022-10-07T13:46:30.373Z,6.32
2022-10-07T13:48:59.919Z,5.47
2022-10-07T13:51:35.802Z,4.63
2022-10-07T13:54:07.983Z,5.57
2022-10-07T13:56:40.925Z,4.45
2022-10-07T13:59:16.063Z,5.15
2022-10-07T14:01:48.709Z,4.05
2022-10-07T14:04:25.326Z,8.10
2022-10-07T14:06:58.167Z,9.40
2022-10-07T14:09:37.010Z,3.63
2022-10-07T14:15:04.828Z,3.30
2022-10-07T14:17:45.544Z,4.13
2022-10-07T14:20:21.459Z,3.05
2022-10-07T14:22:53.665Z,7.35
2022-10-07T14:25:28.134Z,3.25
2022-10-07T14:28:21.526Z,9.15
2022-10-07T14:31:29.073Z,5.13
2022-10-07T14:34:19.100Z,3.70
2022-10-07T14:37:05.066Z,6.45
2022-10-07T14:39:36.446Z,6.05
2022-10-07T14:42:06.155Z,8.77
2022-10-07T14:48:45.561Z,6.45
2022-10-07T14:51:17.938Z,7.03
2022-10-07T14:53:49.320Z,5.93
2022-10-07T14:56:38.624Z,11.57
2022-10-07T14:59:11.537Z,6.28
2022-10-07T15:01:40.156Z,4.57
2022-10-07T15:04:10.428Z,6.57
2022-10-07T15:06:40.443Z,3.92
2022-10-07T15:09:12.965Z,7.38
2022-10-07T15:11:41.552Z,2.83
2022-10-07T15:14:11.286Z,5.53
2022-10-07T15:16:39.541Z,6.50
2022-10-07T15:19:07.991Z,5.27
2022-10-07T15:21:36.495Z,5.95
2022-10-07T15:24:06.606Z,2.50
2022-10-07T15:26:34.802Z,4.65
2022-10-07T15:29:03.165Z,6.38
2022-10-07T15:31:31.916Z,6.57
2022-10-07T15:34:00.380Z,4.57
2022-10-07T15:36:30.276Z,5.15
2022-10-07T15:39:02.152Z,5.95
2022-10-07T15:41:35.390Z,6.45
2022-10-07T15:44:07.336Z,6.05
2022-10-07T15:46:36.178Z,3.20
2022-10-07T15:49:05.508Z,3.35
2022-10-07T15:51:35.627Z,4.63
2022-10-07T15:54:04.343Z,5.60
2022-10-07T15:56:34.352Z,3.65
2022-10-07T15:59:02.909Z,4.28
2022-10-07T16:01:32.089Z,5.00
2022-10-07T16:04:02.227Z,2.30
2022-10-07T16:06:32.699Z,6.63
2022-10-07T16:09:01.956Z,6.90
2022-10-07T16:11:31.316Z,2.78
2022-10-07T16:14:03.197Z,3.33
2022-10-07T16:16:32.563Z,4.95
2022-10-07T16:21:31.391Z,6.05
2022-10-07T16:24:03.085Z,6.28
2022-10-07T16:26:33.978Z,7.63
2022-10-07T16:29:23.494Z,7.05
2022-10-07T16:31:58.243Z,4.47
2022-10-07T16:34:28.373Z,7.85
2022-10-07T16:36:58.788Z,4.53
2022-10-07T16:41:56.600Z,6.78
2022-10-07T16:44:26.978Z,8.30
2022-10-07T16:46:57.112Z,8.18
2022-10-07T16:49:27.820Z,9.23
2022-10-07T16:51:58.906Z,27.27
2022-10-07T16:54:29.965Z,9.10
2022-10-07T16:56:58.665Z,10.40
2022-10-07T16:59:28.479Z,5.47
2022-10-07T17:04:25.938Z,4.72
2022-10-07T17:06:54.847Z,8.07
2022-10-07T17:09:24.663Z,10.57
2022-10-07T17:11:53.262Z,6.88
2022-10-07T17:14:23.072Z,10.32
2022-10-07T17:16:54.845Z,4.72
2022-10-07T17:19:27.224Z,8.43
2022-10-07T17:21:56.797Z,9.90
2022-10-07T17:24:25.287Z,9.15
2022-10-07T17:26:53.629Z,7.53
2022-10-07T17:29:24.304Z,9.32
2022-10-07T17:31:54.029Z,7.80
2022-10-07T17:34:23.712Z,6.55
2022-10-07T17:36:52.439Z,8.13
2022-10-07T17:39:20.898Z,6.63
2022-10-07T17:41:49.114Z,7.03
2022-10-07T17:44:19.795Z,7.47
2022-10-07T17:46:48.972Z,13.65
2022-10-07T17:49:18.814Z,11.27
2022-10-07T17:54:16.358Z,11.80
2022-10-07T17:56:47.835Z,9.43
2022-10-07T17:59:16.854Z,7.93
2022-10-07T18:01:45.767Z,7.65
2022-10-07T18:04:18.910Z,11.60
2022-10-07T18:06:52.788Z,12.60
2022-10-07T18:09:22.837Z,6.28
2022-10-07T18:12:09.106Z,9.25
2022-10-07T18:14:54.814Z,7.57
2022-10-07T18:17:24.620Z,10.27
2022-10-07T18:19:53.755Z,8.30
2022-10-07T18:22:24.410Z,13.93
2022-10-07T18:24:57.189Z,12.75
2022-10-07T18:27:27.121Z,11.23
2022-10-07T18:29:56.024Z,17.15
2022-10-07T18:32:25.802Z,10.25
2022-10-07T18:34:53.950Z,11.98
2022-10-07T18:37:24.052Z,9.52
2022-10-07T18:39:52.486Z,18.08
2022-10-07T18:42:20.990Z,25.70
2022-10-07T18:44:50.523Z,10.75
2022-10-07T18:49:47.486Z,12.68
2022-10-07T18:52:18.161Z,17.67
2022-10-07T18:54:47.730Z,19.55
2022-10-07T18:57:16.399Z,14.27
2022-10-07T18:59:44.518Z,24.45
2022-10-07T19:02:12.745Z,20.15
2022-10-07T19:04:41.306Z,28.43
2022-10-07T19:07:09.486Z,18.88
2022-10-07T19:09:40.582Z,22.77
2022-10-07T19:12:30.320Z,24.75
2022-10-07T19:14:57.698Z,29.75
2022-10-07T19:17:26.254Z,28.50
2022-10-07T19:19:54.504Z,35.05
2022-10-07T19:22:22.993Z,32.05
2022-10-07T19:25:09.092Z,34.58
2022-10-07T19:27:39.976Z,29.90
2022-10-07T19:30:09.956Z,30.15
2022-10-07T19:32:38.192Z,31.42
2022-10-07T19:35:07.412Z,35.22
2022-10-07T19:40:04.527Z,31.63
2022-10-07T19:42:32.997Z,35.53
2022-10-07T19:45:03.093Z,35.65
2022-10-07T19:47:35.261Z,26.50
2022-10-07T19:50:04.528Z,32.95
2022-10-07T19:52:33.949Z,35.10
2022-10-07T19:55:02.378Z,31.88
2022-10-07T19:57:31.519Z,34.25
2022-10-07T19:59:59.782Z,38.97
2022-10-07T20:02:29.771Z,35.78
2022-10-07T20:04:57.960Z,35.50
2022-10-07T20:07:26.299Z,34.85
2022-10-07T20:09:55.807Z,35.97
2022-10-07T20:12:24.267Z,33.53
2022-10-07T20:14:54.640Z,35.33
2022-10-07T20:17:23.992Z,36.80
2022-10-07T20:19:54.117Z,35.00
2022-10-07T20:22:22.512Z,29.23
2022-10-07T20:24:50.580Z,34.33
2022-10-07T20:27:20.115Z,31.45
2022-10-07T20:30:08.149Z,26.40
2022-10-07T20:32:36.629Z,25.48
2022-10-07T20:35:10.648Z,34.63
2022-10-07T20:37:39.635Z,34.22
2022-10-07T20:40:25.769Z,28.70
2022-10-07T20:42:55.727Z,35.70
2022-10-07T20:45:23.854Z,25.92
2022-10-07T20:47:55.278Z,24.08
2022-10-07T20:50:25.000Z,28.40
2022-10-07T20:52:53.781Z,28.75
2022-10-07T20:55:22.148Z,35.83
2022-10-07T20:57:51.258Z,29.10
2022-10-07T21:00:19.756Z,31.85
2022-10-07T21:02:48.443Z,29.85
2022-10-07T21:05:16.830Z,32.70
2022-10-07T21:07:47.812Z,24.38
2022-10-07T21:10:18.334Z,25.85
2022-10-07T21:12:47.178Z,24.58
2022-10-07T21:15:15.459Z,29.15
2022-10-07T21:17:44.539Z,25.48
2022-10-07T21:20:12.913Z,27.48
2022-10-07T21:22:41.005Z,29.00
2022-10-07T21:25:11.977Z,27.90
2022-10-07T21:27:40.122Z,28.13
2022-10-07T21:30:10.716Z,25.20
2022-10-07T21:32:39.095Z,25.23
2022-10-07T21:35:08.000Z,31.38
2022-10-07T21:37:37.735Z,26.20
2022-10-07T21:40:06.796Z,30.15
2022-10-07T21:42:36.473Z,27.17
2022-10-07T21:45:05.092Z,29.85
2022-10-07T21:47:33.520Z,30.05
2022-10-07T21:50:01.805Z,28.42
2022-10-07T21:52:30.485Z,23.60
2022-10-07T21:54:58.893Z,24.83
2022-10-07T21:57:27.033Z,30.05
2022-10-07T21:59:56.625Z,26.70
2022-10-07T22:02:25.087Z,26.92
2022-10-07T22:04:53.284Z,25.75
2022-10-07T22:07:38.481Z,31.95
2022-10-07T22:10:08.113Z,26.33
2022-10-07T22:12:36.681Z,26.63
2022-10-07T22:15:08.272Z,34.53
2022-10-07T22:17:36.375Z,31.17
2022-10-07T22:20:04.900Z,29.75
2022-10-07T22:22:34.149Z,24.80
2022-10-07T22:25:02.786Z,30.15
2022-10-07T22:27:30.924Z,27.70
2022-10-07T22:29:59.229Z,33.78
2022-10-07T22:32:31.163Z,28.27
2022-10-07T22:35:16.441Z,34.30
2022-10-07T22:37:45.383Z,29.88
2022-10-07T22:40:13.540Z,29.65
2022-10-07T22:42:46.089Z,35.20
2022-10-07T22:45:14.889Z,32.70
2022-10-07T22:47:44.504Z,31.08
2022-10-07T22:52:40.899Z,38.58
2022-10-07T22:55:09.934Z,32.70
2022-10-07T22:57:38.072Z,25.88
2022-10-07T23:00:07.740Z,25.30
2022-10-07T23:05:05.815Z,30.77
2022-10-07T23:07:34.558Z,28.52
2022-10-07T23:10:02.838Z,28.58
2022-10-07T23:12:33.223Z,25.52
2022-10-07T23:15:01.729Z,33.85
2022-10-07T23:17:30.380Z,33.90
2022-10-07T23:19:59.273Z,23.58
2022-10-07T23:22:29.015Z,32.80
2022-10-07T23:27:25.694Z,24.20
2022-10-07T23:29:53.994Z,26.15
2022-10-07T23:32:22.085Z,26.35
2022-10-07T23:34:50.206Z,32.90
2022-10-07T23:37:18.825Z,36.55
2022-10-07T23:39:49.281Z,27.75
2022-10-07T23:42:17.449Z,33.15
2022-10-07T23:44:45.812Z,30.40
2022-10-07T23:47:13.924Z,25.85
2022-10-07T23:49:42.069Z,25.83
2022-10-07T23:52:10.472Z,26.73
2022-10-07T23:54:38.738Z,23.25
2022-10-07T23:57:08.241Z,28.42
2022-10-07T23:59:36.637Z,25.92
